sensor_id;sensor_type;location;lat;lon;timestamp;temperature;humidity
2565;DHT22;1292;48.020;7.822;2023-10-19T05:45:27;13.10;99.90
2565;DHT22;1292;48.020;7.822;2023-10-19T05:47:55;13.10;99.90
2565;DHT22;1292;48.020;7.822;2023-10-19T05:50:22;13.10;99.90
2565;DHT22;1292;48.020;7.822;2023-10-19T05:52:49;13.10;99.90
2565;DHT22;1292;48.020;7.822;2023-10-19T05:55:17;13.10;99.90
2565;DHT22;1292;48.020;7.822;2023-10-19T05:57:47;13.10;99.90
2565;DHT22;1292;48.020;7.822;2023-10-19T06:00:15;13.10;99.90
2565;DHT22;1292;48.020;7.822;2023-10-19T06:02:46;13.10;99.90
2565;DHT22;1292;48.020;7.822;2023-10-19T06:05:15;13.10;99.90
2565;DHT22;1292;48.020;7.822;2023-10-19T06:07:43;13.20;99.90
2565;DHT22;1292;48.020;7.822;2023-10-19T06:10:14;13.10;99.90
2565;DHT22;1292;48.020;7.822;2023-10-19T06:12:44;13.10;99.90
2565;DHT22;1292;48.020;7.822;2023-10-19T06:15:12;13.10;99.90
2565;DHT22;1292;48.020;7.822;2023-10-19T06:17:39;13.10;99.90
2565;DHT22;1292;48.020;7.822;2023-10-19T06:20:09;13.10;99.90
2565;DHT22;1292;48.020;7.822;2023-10-19T06:22:46;13.10;99.90
2565;DHT22;1292;48.020;7.822;2023-10-19T06:25:16;13.10;99.90
2565;DHT22;1292;48.020;7.822;2023-10-19T06:27:44;13.20;99.90
2565;DHT22;1292;48.020;7.822;2023-10-19T06:30:11;13.10;99.90
2565;DHT22;1292;48.020;7.822;2023-10-19T06:32:44;13.10;99.90
2565;DHT22;1292;48.020;7.822;2023-10-19T06:35:12;13.10;99.90
2565;DHT22;1292;48.020;7.822;2023-10-19T06:37:39;13.10;99.90
2565;DHT22;1292;48.020;7.822;2023-10-19T06:40:07;13.10;99.90
2565;DHT22;1292;48.020;7.822;2023-10-19T06:42:34;13.20;99.90
2565;DHT22;1292;48.020;7.822;2023-10-19T06:45:01;13.20;99.90
2565;DHT22;1292;48.020;7.822;2023-10-19T06:47:28;13.20;99.90
2565;DHT22;1292;48.020;7.822;2023-10-19T06:49:56;13.20;99.90
2565;DHT22;1292;48.020;7.822;2023-10-19T06:52:24;13.30;99.90
2565;DHT22;1292;48.020;7.822;2023-10-19T06:54:51;13.30;99.90
2565;DHT22;1292;48.020;7.822;2023-10-19T06:57:18;13.30;99.90
2565;DHT22;1292;48.020;7.822;2023-10-19T06:59:44;13.40;99.90
2565;DHT22;1292;48.020;7.822;2023-10-19T07:02:11;13.40;99.90
2565;DHT22;1292;48.020;7.822;2023-10-19T07:04:38;13.40;99.90
2565;DHT22;1292;48.020;7.822;2023-10-19T07:07:05;13.50;99.90
2565;DHT22;1292;48.020;7.822;2023-10-19T07:09:33;13.50;99.90
2565;DHT22;1292;48.020;7.822;2023-10-19T07:12:00;13.50;99.90
2565;DHT22;1292;48.020;7.822;2023-10-19T07:14:27;13.50;99.90
2565;DHT22;1292;48.020;7.822;2023-10-19T07:16:53;13.60;99.90
2565;DHT22;1292;48.020;7.822;2023-10-19T07:19:20;13.50;99.90
2565;DHT22;1292;48.020;7.822;2023-10-19T07:21:47;13.50;99.90
2565;DHT22;1292;48.020;7.822;2023-10-19T07:24:19;13.50;99.90
2565;DHT22;1292;48.020;7.822;2023-10-19T07:26:50;13.50;99.90
2565;DHT22;1292;48.020;7.822;2023-10-19T07:29:29;13.50;99.90
2565;DHT22;1292;48.020;7.822;2023-10-19T07:31:57;13.60;99.90
2565;DHT22;1292;48.020;7.822;2023-10-19T07:34:24;13.70;99.90
2565;DHT22;1292;48.020;7.822;2023-10-19T07:36:53;13.70;99.90
2565;DHT22;1292;48.020;7.822;2023-10-19T07:39:20;13.70;99.90
2565;DHT22;1292;48.020;7.822;2023-10-19T07:41:50;13.80;99.90
2565;DHT22;1292;48.020;7.822;2023-10-19T07:44:17;13.80;99.90
2565;DHT22;1292;48.020;7.822;2023-10-19T07:46:43;13.80;99.90
2565;DHT22;1292;48.020;7.822;2023-10-19T07:49:10;13.90;99.90
2565;DHT22;1292;48.020;7.822;2023-10-19T07:51:44;14.00;99.90
2565;DHT22;1292;48.020;7.822;2023-10-19T07:54:11;14.10;99.90
2565;DHT22;1292;48.020;7.822;2023-10-19T07:56:38;14.20;99.90
2565;DHT22;1292;48.020;7.822;2023-10-19T07:59:06;14.20;99.90
2565;DHT22;1292;48.020;7.822;2023-10-19T08:01:33;14.30;99.90
2565;DHT22;1292;48.020;7.822;2023-10-19T08:04:00;14.40;99.90
2565;DHT22;1292;48.020;7.822;2023-10-19T08:06:27;14.40;99.90
2565;DHT22;1292;48.020;7.822;2023-10-19T08:08:54;14.40;99.90
2565;DHT22;1292;48.020;7.822;2023-10-19T08:11:21;14.50;99.90
2565;DHT22;1292;48.020;7.822;2023-10-19T08:13:48;14.50;99.90
2565;DHT22;1292;48.020;7.822;2023-10-19T08:16:17;14.50;99.90
2565;DHT22;1292;48.020;7.822;2023-10-19T08:18:44;14.50;99.90
2565;DHT22;1292;48.020;7.822;2023-10-19T08:21:10;14.50;99.90
2565;DHT22;1292;48.020;7.822;2023-10-19T08:23:38;14.50;99.90
2565;DHT22;1292;48.020;7.822;2023-10-19T08:26:06;14.50;99.90
2565;DHT22;1292;48.020;7.822;2023-10-19T08:28:32;14.50;99.90
2565;DHT22;1292;48.020;7.822;2023-10-19T08:30:59;14.50;99.90
2565;DHT22;1292;48.020;7.822;2023-10-19T08:33:28;14.50;99.90
2565;DHT22;1292;48.020;7.822;2023-10-19T08:35:56;14.60;99.90
2565;DHT22;1292;48.020;7.822;2023-10-19T08:38:23;14.60;99.90
2565;DHT22;1292;48.020;7.822;2023-10-19T08:40:51;14.60;99.90
2565;DHT22;1292;48.020;7.822;2023-10-19T08:43:18;14.70;99.90
2565;DHT22;1292;48.020;7.822;2023-10-19T08:45:45;14.80;99.90
2565;DHT22;1292;48.020;7.822;2023-10-19T08:48:12;14.80;99.90
2565;DHT22;1292;48.020;7.822;2023-10-19T08:50:41;14.80;99.90
2565;DHT22;1292;48.020;7.822;2023-10-19T08:53:10;14.80;99.90
2565;DHT22;1292;48.020;7.822;2023-10-19T08:55:39;14.70;99.90
2565;DHT22;1292;48.020;7.822;2023-10-19T08:58:06;14.70;99.90
2565;DHT22;1292;48.020;7.822;2023-10-19T09:00:44;14.70;99.90
2565;DHT22;1292;48.020;7.822;2023-10-19T09:03:13;14.80;99.90
2565;DHT22;1292;48.020;7.822;2023-10-19T09:05:43;14.90;99.90
2565;DHT22;1292;48.020;7.822;2023-10-19T09:08:14;14.90;99.90
2565;DHT22;1292;48.020;7.822;2023-10-19T09:10:43;15.00;99.90
2565;DHT22;1292;48.020;7.822;2023-10-19T09:13:11;15.00;99.90
2565;DHT22;1292;48.020;7.822;2023-10-19T09:15:41;15.00;99.90
2565;DHT22;1292;48.020;7.822;2023-10-19T09:18:15;15.00;99.90
2565;DHT22;1292;48.020;7.822;2023-10-19T09:20:45;15.10;99.90
2565;DHT22;1292;48.020;7.822;2023-10-19T09:23:23;15.20;99.90
2565;DHT22;1292;48.020;7.822;2023-10-19T09:25:51;15.20;99.90
2565;DHT22;1292;48.020;7.822;2023-10-19T09:28:18;15.10;99.90
2565;DHT22;1292;48.020;7.822;2023-10-19T09:30:46;15.20;99.90
2565;DHT22;1292;48.020;7.822;2023-10-19T09:33:13;15.20;99.90
2565;DHT22;1292;48.020;7.822;2023-10-19T09:35:45;15.20;99.90
2565;DHT22;1292;48.020;7.822;2023-10-19T09:38:13;15.10;99.90
2565;DHT22;1292;48.020;7.822;2023-10-19T09:40:40;15.20;99.90
2565;DHT22;1292;48.020;7.822;2023-10-19T09:43:14;15.20;99.90
2565;DHT22;1292;48.020;7.822;2023-10-19T09:45:42;15.20;99.90
2565;DHT22;1292;48.020;7.822;2023-10-19T09:48:16;15.20;99.90
2565;DHT22;1292;48.020;7.822;2023-10-19T09:50:50;15.20;99.90
2565;DHT22;1292;48.020;7.822;2023-10-19T09:53:22;15.20;99.90
2565;DHT22;1292;48.020;7.822;2023-10-19T09:55:50;15.20;99.90
2565;DHT22;1292;48.020;7.822;2023-10-19T09:58:21;15.20;99.90
2565;DHT22;1292;48.020;7.822;2023-10-19T10:00:49;15.20;99.90
2565;DHT22;1292;48.020;7.822;2023-10-19T10:03:42;15.30;99.90
2565;DHT22;1292;48.020;7.822;2023-10-19T10:06:10;15.40;99.90
2565;DHT22;1292;48.020;7.822;2023-10-19T10:08:40;15.50;99.90
2565;DHT22;1292;48.020;7.822;2023-10-19T10:11:17;15.50;99.90
2565;DHT22;1292;48.020;7.822;2023-10-19T10:13:45;15.60;99.90
2565;DHT22;1292;48.020;7.822;2023-10-19T10:16:13;15.70;99.90
2565;DHT22;1292;48.020;7.822;2023-10-19T10:18:41;15.80;99.90
2565;DHT22;1292;48.020;7.822;2023-10-19T10:21:14;15.80;99.90
2565;DHT22;1292;48.020;7.822;2023-10-19T10:23:42;15.90;99.90
2565;DHT22;1292;48.020;7.822;2023-10-19T10:26:11;15.90;99.90
2565;DHT22;1292;48.020;7.822;2023-10-19T10:28:39;15.90;99.90
2565;DHT22;1292;48.020;7.822;2023-10-19T10:31:12;16.00;99.90
2565;DHT22;1292;48.020;7.822;2023-10-19T10:33:43;16.00;99.90
2565;DHT22;1292;48.020;7.822;2023-10-19T10:36:13;16.20;99.90
2565;DHT22;1292;48.020;7.822;2023-10-19T10:38:41;16.30;99.90
2565;DHT22;1292;48.020;7.822;2023-10-19T10:41:07;16.40;99.90
2565;DHT22;1292;48.020;7.822;2023-10-19T10:43:53;16.60;99.90
2565;DHT22;1292;48.020;7.822;2023-10-19T10:46:25;16.70;99.90
2565;DHT22;1292;48.020;7.822;2023-10-19T10:48:52;16.80;99.90
2565;DHT22;1292;48.020;7.822;2023-10-19T10:51:22;16.90;99.90
2565;DHT22;1292;48.020;7.822;2023-10-19T10:53:50;16.90;99.90
2565;DHT22;1292;48.020;7.822;2023-10-19T10:56:18;17.00;99.90
2565;DHT22;1292;48.020;7.822;2023-10-19T10:58:45;17.00;99.90
2565;DHT22;1292;48.020;7.822;2023-10-19T11:01:12;17.00;99.90
2565;DHT22;1292;48.020;7.822;2023-10-19T11:03:40;17.10;99.90
2565;DHT22;1292;48.020;7.822;2023-10-19T11:06:07;17.10;99.90
2565;DHT22;1292;48.020;7.822;2023-10-19T11:08:36;17.10;99.90
2565;DHT22;1292;48.020;7.822;2023-10-19T11:11:05;17.20;99.90
2565;DHT22;1292;48.020;7.822;2023-10-19T11:13:32;17.20;99.90
2565;DHT22;1292;48.020;7.822;2023-10-19T11:16:03;17.20;99.90
2565;DHT22;1292;48.020;7.822;2023-10-19T11:18:33;17.30;99.90
2565;DHT22;1292;48.020;7.822;2023-10-19T11:21:02;17.40;99.90
2565;DHT22;1292;48.020;7.822;2023-10-19T11:23:41;17.30;99.90
2565;DHT22;1292;48.020;7.822;2023-10-19T11:26:09;17.40;99.90
2565;DHT22;1292;48.020;7.822;2023-10-19T11:28:37;17.40;99.90
2565;DHT22;1292;48.020;7.822;2023-10-19T11:31:13;17.50;99.90
2565;DHT22;1292;48.020;7.822;2023-10-19T11:33:40;17.50;99.90
2565;DHT22;1292;48.020;7.822;2023-10-19T11:36:08;17.50;99.90
2565;DHT22;1292;48.020;7.822;2023-10-19T11:38:42;17.50;99.90
2565;DHT22;1292;48.020;7.822;2023-10-19T11:41:09;17.50;99.90
2565;DHT22;1292;48.020;7.822;2023-10-19T11:43:38;17.60;99.90
2565;DHT22;1292;48.020;7.822;2023-10-19T11:46:05;17.50;99.90
2565;DHT22;1292;48.020;7.822;2023-10-19T11:48:33;17.50;99.90
2565;DHT22;1292;48.020;7.822;2023-10-19T11:51:01;17.50;99.90
2565;DHT22;1292;48.020;7.822;2023-10-19T11:53:31;17.60;99.90
2565;DHT22;1292;48.020;7.822;2023-10-19T11:56:02;17.60;99.90
2565;DHT22;1292;48.020;7.822;2023-10-19T11:58:30;17.60;99.90
2565;DHT22;1292;48.020;7.822;2023-10-19T12:00:58;17.60;99.90
2565;DHT22;1292;48.020;7.822;2023-10-19T12:03:25;17.60;99.90
2565;DHT22;1292;48.020;7.822;2023-10-19T12:05:52;17.50;99.90
2565;DHT22;1292;48.020;7.822;2023-10-19T12:08:20;17.50;99.90
2565;DHT22;1292;48.020;7.822;2023-10-19T12:10:47;17.50;99.90
2565;DHT22;1292;48.020;7.822;2023-10-19T12:13:16;17.50;99.90
2565;DHT22;1292;48.020;7.822;2023-10-19T12:15:43;17.50;99.90
2565;DHT22;1292;48.020;7.822;2023-10-19T12:18:17;17.50;99.90
2565;DHT22;1292;48.020;7.822;2023-10-19T12:20:44;17.50;99.90
2565;DHT22;1292;48.020;7.822;2023-10-19T12:23:11;17.50;99.90
2565;DHT22;1292;48.020;7.822;2023-10-19T12:25:38;17.50;99.90
2565;DHT22;1292;48.020;7.822;2023-10-19T12:28:07;17.50;99.90
2565;DHT22;1292;48.020;7.822;2023-10-19T12:30:40;17.50;99.90
2565;DHT22;1292;48.020;7.822;2023-10-19T12:33:07;17.50;99.90
2565;DHT22;1292;48.020;7.822;2023-10-19T12:35:37;17.50;99.90
2565;DHT22;1292;48.020;7.822;2023-10-19T12:38:17;17.50;99.90
2565;DHT22;1292;48.020;7.822;2023-10-19T12:40:46;17.60;99.90
2565;DHT22;1292;48.020;7.822;2023-10-19T12:43:13;17.50;99.90
2565;DHT22;1292;48.020;7.822;2023-10-19T12:45:42;17.50;99.90
2565;DHT22;1292;48.020;7.822;2023-10-19T12:48:09;17.50;99.90
2565;DHT22;1292;48.020;7.822;2023-10-19T12:50:37;17.50;99.90
2565;DHT22;1292;48.020;7.822;2023-10-19T12:53:04;17.50;99.90
2565;DHT22;1292;48.020;7.822;2023-10-19T12:55:32;17.50;99.90
2565;DHT22;1292;48.020;7.822;2023-10-19T12:58:00;17.50;99.90
2565;DHT22;1292;48.020;7.822;2023-10-19T13:00:32;17.40;99.90
2565;DHT22;1292;48.020;7.822;2023-10-19T13:03:07;17.40;99.90
2565;DHT22;1292;48.020;7.822;2023-10-19T13:05:35;17.30;99.90
2565;DHT22;1292;48.020;7.822;2023-10-19T13:08:03;17.30;99.90
2565;DHT22;1292;48.020;7.822;2023-10-19T13:10:32;17.30;99.90
2565;DHT22;1292;48.020;7.822;2023-10-19T13:13:00;17.30;99.90
2565;DHT22;1292;48.020;7.822;2023-10-19T13:15:29;17.30;99.90
2565;DHT22;1292;48.020;7.822;2023-10-19T13:17:57;17.30;99.90
2565;DHT22;1292;48.020;7.822;2023-10-19T13:20:26;17.20;99.90
2565;DHT22;1292;48.020;7.822;2023-10-19T13:22:54;17.20;99.90
2565;DHT22;1292;48.020;7.822;2023-10-19T13:25:22;17.20;99.90
2565;DHT22;1292;48.020;7.822;2023-10-19T13:28:05;17.30;99.90
2565;DHT22;1292;48.020;7.822;2023-10-19T13:30:36;17.30;99.90
2565;DHT22;1292;48.020;7.822;2023-10-19T13:33:04;17.30;99.90
2565;DHT22;1292;48.020;7.822;2023-10-19T13:35:33;17.30;99.90
2565;DHT22;1292;48.020;7.822;2023-10-19T13:38:00;17.30;99.90
2565;DHT22;1292;48.020;7.822;2023-10-19T13:40:27;17.30;99.90
2565;DHT22;1292;48.020;7.822;2023-10-19T13:42:56;17.30;99.90
2565;DHT22;1292;48.020;7.822;2023-10-19T13:45:23;17.30;99.90
2565;DHT22;1292;48.020;7.822;2023-10-19T13:47:50;17.30;99.90
2565;DHT22;1292;48.020;7.822;2023-10-19T13:50:21;17.30;99.90
2565;DHT22;1292;48.020;7.822;2023-10-19T13:52:50;17.30;99.90
2565;DHT22;1292;48.020;7.822;2023-10-19T13:55:17;17.30;99.90
2565;DHT22;1292;48.020;7.822;2023-10-19T13:57:46;17.30;99.90
2565;DHT22;1292;48.020;7.822;2023-10-19T14:00:14;17.40;99.90
2565;DHT22;1292;48.020;7.822;2023-10-19T14:02:45;17.40;99.90
2565;DHT22;1292;48.020;7.822;2023-10-19T14:05:13;17.40;99.90
2565;DHT22;1292;48.020;7.822;2023-10-19T14:07:40;17.40;99.90
2565;DHT22;1292;48.020;7.822;2023-10-19T14:10:10;17.40;99.90
2565;DHT22;1292;48.020;7.822;2023-10-19T14:12:39;17.50;99.90
2565;DHT22;1292;48.020;7.822;2023-10-19T14:15:12;17.50;99.90
2565;DHT22;1292;48.020;7.822;2023-10-19T14:17:39;17.50;99.90
2565;DHT22;1292;48.020;7.822;2023-10-19T14:20:07;17.50;99.90
2565;DHT22;1292;48.020;7.822;2023-10-19T14:22:38;17.50;99.90
2565;DHT22;1292;48.020;7.822;2023-10-19T14:25:11;17.50;99.90
2565;DHT22;1292;48.020;7.822;2023-10-19T14:27:42;17.50;99.90
2565;DHT22;1292;48.020;7.822;2023-10-19T14:30:11;17.50;99.90
2565;DHT22;1292;48.020;7.822;2023-10-19T14:32:39;17.50;99.90
2565;DHT22;1292;48.020;7.822;2023-10-19T14:35:07;17.40;99.90
2565;DHT22;1292;48.020;7.822;2023-10-19T14:37:37;17.40;99.90
2565;DHT22;1292;48.020;7.822;2023-10-19T14:40:07;17.40;99.90
2565;DHT22;1292;48.020;7.822;2023-10-19T14:42:37;17.30;99.90
2565;DHT22;1292;48.020;7.822;2023-10-19T14:45:07;17.40;99.90
2565;DHT22;1292;48.020;7.822;2023-10-19T14:47:36;17.40;99.90
2565;DHT22;1292;48.020;7.822;2023-10-19T14:50:09;17.40;99.90
2565;DHT22;1292;48.020;7.822;2023-10-19T14:52:36;17.30;99.90
2565;DHT22;1292;48.020;7.822;2023-10-19T14:55:04;17.30;99.90
2565;DHT22;1292;48.020;7.822;2023-10-19T14:57:32;17.30;99.90
2565;DHT22;1292;48.020;7.822;2023-10-19T15:00:01;17.30;99.90
2565;DHT22;1292;48.020;7.822;2023-10-19T15:02:40;17.20;99.90
2565;DHT22;1292;48.020;7.822;2023-10-19T15:05:08;17.20;99.90
2565;DHT22;1292;48.020;7.822;2023-10-19T15:07:39;17.20;99.90
2565;DHT22;1292;48.020;7.822;2023-10-19T15:10:07;17.20;99.90
2565;DHT22;1292;48.020;7.822;2023-10-19T15:12:35;17.10;99.90
2565;DHT22;1292;48.020;7.822;2023-10-19T15:15:05;17.10;99.90
2565;DHT22;1292;48.020;7.822;2023-10-19T15:17:33;17.10;99.90
2565;DHT22;1292;48.020;7.822;2023-10-19T15:20:00;17.10;99.90
2565;DHT22;1292;48.020;7.822;2023-10-19T15:22:27;17.10;99.90
2565;DHT22;1292;48.020;7.822;2023-10-19T15:24:53;17.00;99.90
2565;DHT22;1292;48.020;7.822;2023-10-19T15:27:20;17.00;99.90
2565;DHT22;1292;48.020;7.822;2023-10-19T15:29:47;17.00;99.90
2565;DHT22;1292;48.020;7.822;2023-10-19T15:32:15;17.00;99.90
2565;DHT22;1292;48.020;7.822;2023-10-19T15:34:42;16.90;99.90
2565;DHT22;1292;48.020;7.822;2023-10-19T15:37:10;16.90;99.90
2565;DHT22;1292;48.020;7.822;2023-10-19T15:39:37;16.80;99.90
2565;DHT22;1292;48.020;7.822;2023-10-19T15:42:03;16.80;99.90
2565;DHT22;1292;48.020;7.822;2023-10-19T15:44:33;16.80;99.90
2565;DHT22;1292;48.020;7.822;2023-10-19T15:47:00;16.80;99.90
2565;DHT22;1292;48.020;7.822;2023-10-19T15:49:30;16.70;99.90
2565;DHT22;1292;48.020;7.822;2023-10-19T15:51:58;16.70;99.90
2565;DHT22;1292;48.020;7.822;2023-10-19T15:54:24;16.70;99.90
2565;DHT22;1292;48.020;7.822;2023-10-19T15:56:52;16.70;99.90
2565;DHT22;1292;48.020;7.822;2023-10-19T15:59:19;16.70;99.90
2565;DHT22;1292;48.020;7.822;2023-10-19T16:01:46;16.70;99.90
2565;DHT22;1292;48.020;7.822;2023-10-19T16:04:13;16.80;99.90
2565;DHT22;1292;48.020;7.822;2023-10-19T16:06:41;16.80;99.90
2565;DHT22;1292;48.020;7.822;2023-10-19T16:09:10;16.70;99.90
2565;DHT22;1292;48.020;7.822;2023-10-19T16:11:37;16.70;99.90
2565;DHT22;1292;48.020;7.822;2023-10-19T16:14:04;16.70;99.90
2565;DHT22;1292;48.020;7.822;2023-10-19T16:16:30;16.70;99.90
2565;DHT22;1292;48.020;7.822;2023-10-19T16:18:57;16.70;99.90
2565;DHT22;1292;48.020;7.822;2023-10-19T16:21:24;16.70;99.90
2565;DHT22;1292;48.020;7.822;2023-10-19T16:23:52;16.70;99.90
2565;DHT22;1292;48.020;7.822;2023-10-19T16:26:19;16.60;99.90
2565;DHT22;1292;48.020;7.822;2023-10-19T16:28:46;16.60;99.90
2565;DHT22;1292;48.020;7.822;2023-10-19T16:31:14;16.60;99.90
2565;DHT22;1292;48.020;7.822;2023-10-19T16:33:41;16.60;99.90
2565;DHT22;1292;48.020;7.822;2023-10-19T16:36:08;16.60;99.90
2565;DHT22;1292;48.020;7.822;2023-10-19T16:38:35;16.60;99.90
2565;DHT22;1292;48.020;7.822;2023-10-19T16:41:03;16.60;99.90
2565;DHT22;1292;48.020;7.822;2023-10-19T16:43:30;16.60;99.90
2565;DHT22;1292;48.020;7.822;2023-10-19T16:45:58;16.50;99.90
2565;DHT22;1292;48.020;7.822;2023-10-19T16:48:25;16.50;99.90
2565;DHT22;1292;48.020;7.822;2023-10-19T16:50:52;16.50;99.90
2565;DHT22;1292;48.020;7.822;2023-10-19T16:53:19;16.50;99.90
2565;DHT22;1292;48.020;7.822;2023-10-19T16:55:45;16.50;99.90
2565;DHT22;1292;48.020;7.822;2023-10-19T16:58:13;16.40;99.90
2565;DHT22;1292;48.020;7.822;2023-10-19T17:00:40;16.40;99.90
2565;DHT22;1292;48.020;7.822;2023-10-19T17:03:09;16.40;99.90
2565;DHT22;1292;48.020;7.822;2023-10-19T17:05:36;16.40;99.90
2565;DHT22;1292;48.020;7.822;2023-10-19T17:08:03;16.40;99.90
2565;DHT22;1292;48.020;7.822;2023-10-19T17:10:30;16.40;99.90
2565;DHT22;1292;48.020;7.822;2023-10-19T17:12:57;16.40;99.90
2565;DHT22;1292;48.020;7.822;2023-10-19T17:15:25;16.40;99.90
2565;DHT22;1292;48.020;7.822;2023-10-19T17:17:52;16.40;99.90
2565;DHT22;1292;48.020;7.822;2023-10-19T17:20:19;16.40;99.90
2565;DHT22;1292;48.020;7.822;2023-10-19T17:22:46;16.40;99.90
2565;DHT22;1292;48.020;7.822;2023-10-19T17:25:13;16.40;99.90
2565;DHT22;1292;48.020;7.822;2023-10-19T17:27:40;16.40;99.90
2565;DHT22;1292;48.020;7.822;2023-10-19T17:30:08;16.40;99.90
2565;DHT22;1292;48.020;7.822;2023-10-19T17:32:40;16.40;99.90
2565;DHT22;1292;48.020;7.822;2023-10-19T17:35:07;16.30;99.90
2565;DHT22;1292;48.020;7.822;2023-10-19T17:37:35;16.30;99.90
2565;DHT22;1292;48.020;7.822;2023-10-19T17:40:02;16.30;99.90
2565;DHT22;1292;48.020;7.822;2023-10-19T17:42:30;16.20;99.90
2565;DHT22;1292;48.020;7.822;2023-10-19T17:44:57;16.20;99.90
2565;DHT22;1292;48.020;7.822;2023-10-19T17:47:24;16.20;99.90
2565;DHT22;1292;48.020;7.822;2023-10-19T17:49:54;16.20;99.90
2565;DHT22;1292;48.020;7.822;2023-10-19T17:52:20;16.20;99.90
2565;DHT22;1292;48.020;7.822;2023-10-19T17:54:47;16.20;99.90
2565;DHT22;1292;48.020;7.822;2023-10-19T17:57:15;16.20;99.90
2565;DHT22;1292;48.020;7.822;2023-10-19T17:59:42;16.20;99.90
2565;DHT22;1292;48.020;7.822;2023-10-19T18:02:09;16.20;99.90
2565;DHT22;1292;48.020;7.822;2023-10-19T18:04:37;16.20;99.90
2565;DHT22;1292;48.020;7.822;2023-10-19T18:07:05;16.10;99.90
2565;DHT22;1292;48.020;7.822;2023-10-19T18:09:33;16.10;99.90
2565;DHT22;1292;48.020;7.822;2023-10-19T18:11:59;16.10;99.90
2565;DHT22;1292;48.020;7.822;2023-10-19T18:14:26;16.10;99.90
2565;DHT22;1292;48.020;7.822;2023-10-19T18:16:53;16.10;99.90
2565;DHT22;1292;48.020;7.822;2023-10-19T18:19:21;16.10;99.90
2565;DHT22;1292;48.020;7.822;2023-10-19T18:21:48;16.10;99.90
2565;DHT22;1292;48.020;7.822;2023-10-19T18:24:19;16.10;99.90
2565;DHT22;1292;48.020;7.822;2023-10-19T18:26:46;16.10;99.90
2565;DHT22;1292;48.020;7.822;2023-10-19T18:29:13;16.10;99.90
2565;DHT22;1292;48.020;7.822;2023-10-19T18:31:40;16.00;99.90
2565;DHT22;1292;48.020;7.822;2023-10-19T18:34:07;16.10;99.90
2565;DHT22;1292;48.020;7.822;2023-10-19T18:36:33;16.10;99.90
2565;DHT22;1292;48.020;7.822;2023-10-19T18:39:00;16.00;99.90
2565;DHT22;1292;48.020;7.822;2023-10-19T18:41:29;16.00;99.90
2565;DHT22;1292;48.020;7.822;2023-10-19T18:43:56;16.10;99.90
2565;DHT22;1292;48.020;7.822;2023-10-19T18:46:24;16.20;99.90
2565;DHT22;1292;48.020;7.822;2023-10-19T18:48:52;16.20;99.90
2565;DHT22;1292;48.020;7.822;2023-10-19T18:51:20;16.20;99.90
2565;DHT22;1292;48.020;7.822;2023-10-19T18:53:47;16.10;99.90
2565;DHT22;1292;48.020;7.822;2023-10-19T18:56:14;16.10;99.90
2565;DHT22;1292;48.020;7.822;2023-10-19T18:58:42;16.10;99.90
2565;DHT22;1292;48.020;7.822;2023-10-19T19:01:09;16.10;99.90
2565;DHT22;1292;48.020;7.822;2023-10-19T19:03:36;16.10;99.90
2565;DHT22;1292;48.020;7.822;2023-10-19T19:06:04;16.10;99.90
2565;DHT22;1292;48.020;7.822;2023-10-19T19:08:33;15.90;99.90
2565;DHT22;1292;48.020;7.822;2023-10-19T19:11:08;15.90;99.90
2565;DHT22;1292;48.020;7.822;2023-10-19T19:13:35;15.90;99.90
2565;DHT22;1292;48.020;7.822;2023-10-19T19:16:04;15.80;99.90
2565;DHT22;1292;48.020;7.822;2023-10-19T19:18:31;15.70;99.90
2565;DHT22;1292;48.020;7.822;2023-10-19T19:20:59;15.60;99.90
2565;DHT22;1292;48.020;7.822;2023-10-19T19:23:29;15.60;99.90
2565;DHT22;1292;48.020;7.822;2023-10-19T19:25:56;15.50;99.90
2565;DHT22;1292;48.020;7.822;2023-10-19T19:28:23;15.50;99.90
2565;DHT22;1292;48.020;7.822;2023-10-19T19:30:50;15.50;99.90
2565;DHT22;1292;48.020;7.822;2023-10-19T19:33:18;15.40;99.90
2565;DHT22;1292;48.020;7.822;2023-10-19T19:35:45;15.50;99.90
2565;DHT22;1292;48.020;7.822;2023-10-19T19:38:12;15.50;99.90
2565;DHT22;1292;48.020;7.822;2023-10-19T19:40:39;15.50;99.90
2565;DHT22;1292;48.020;7.822;2023-10-19T19:43:06;15.60;99.90
2565;DHT22;1292;48.020;7.822;2023-10-19T19:45:34;15.50;99.90
2565;DHT22;1292;48.020;7.822;2023-10-19T19:48:03;15.50;99.90
2565;DHT22;1292;48.020;7.822;2023-10-19T19:50:32;15.50;99.90
2565;DHT22;1292;48.020;7.822;2023-10-19T19:52:59;15.60;99.90
2565;DHT22;1292;48.020;7.822;2023-10-19T19:55:25;15.60;99.90
2565;DHT22;1292;48.020;7.822;2023-10-19T19:57:53;15.60;99.90
2565;DHT22;1292;48.020;7.822;2023-10-19T20:00:20;15.60;99.90
2565;DHT22;1292;48.020;7.822;2023-10-19T20:02:48;15.60;99.90
2565;DHT22;1292;48.020;7.822;2023-10-19T20:05:16;15.70;99.90
2565;DHT22;1292;48.020;7.822;2023-10-19T20:07:45;15.70;99.90
2565;DHT22;1292;48.020;7.822;2023-10-19T20:10:13;15.70;99.90
2565;DHT22;1292;48.020;7.822;2023-10-19T20:12:42;15.70;99.90
2565;DHT22;1292;48.020;7.822;2023-10-19T20:15:10;15.70;99.90
2565;DHT22;1292;48.020;7.822;2023-10-19T20:17:40;15.70;99.90
2565;DHT22;1292;48.020;7.822;2023-10-19T20:20:08;15.70;99.90
2565;DHT22;1292;48.020;7.822;2023-10-19T20:22:36;15.80;99.90
2565;DHT22;1292;48.020;7.822;2023-10-19T20:25:05;15.70;99.90
2565;DHT22;1292;48.020;7.822;2023-10-19T20:27:33;15.80;99.90
2565;DHT22;1292;48.020;7.822;2023-10-19T20:30:00;15.70;99.90
2565;DHT22;1292;48.020;7.822;2023-10-19T20:32:27;15.80;99.90
2565;DHT22;1292;48.020;7.822;2023-10-19T20:34:54;15.80;99.90
2565;DHT22;1292;48.020;7.822;2023-10-19T20:37:21;15.70;99.90
2565;DHT22;1292;48.020;7.822;2023-10-19T20:39:48;15.40;99.90
2565;DHT22;1292;48.020;7.822;2023-10-19T20:42:16;15.40;99.90
2565;DHT22;1292;48.020;7.822;2023-10-19T20:44:43;15.30;99.90
2565;DHT22;1292;48.020;7.822;2023-10-19T20:47:10;15.10;99.90
2565;DHT22;1292;48.020;7.822;2023-10-19T20:49:36;15.00;99.90
2565;DHT22;1292;48.020;7.822;2023-10-19T20:52:04;15.10;99.90
2565;DHT22;1292;48.020;7.822;2023-10-19T20:54:33;15.00;99.90
2565;DHT22;1292;48.020;7.822;2023-10-19T20:57:01;14.90;99.90
2565;DHT22;1292;48.020;7.822;2023-10-19T20:59:29;14.90;99.90
2565;DHT22;1292;48.020;7.822;2023-10-19T21:01:56;14.90;99.90
2565;DHT22;1292;48.020;7.822;2023-10-19T21:04:24;14.90;99.90
2565;DHT22;1292;48.020;7.822;2023-10-19T21:06:51;14.90;99.90
2565;DHT22;1292;48.020;7.822;2023-10-19T21:09:18;15.00;99.90
2565;DHT22;1292;48.020;7.822;2023-10-19T21:11:45;15.10;99.90
2565;DHT22;1292;48.020;7.822;2023-10-19T21:14:12;15.20;99.90
2565;DHT22;1292;48.020;7.822;2023-10-19T21:16:40;15.20;99.90
2565;DHT22;1292;48.020;7.822;2023-10-19T21:19:07;15.20;99.90
2565;DHT22;1292;48.020;7.822;2023-10-19T21:21:35;15.30;99.90
2565;DHT22;1292;48.020;7.822;2023-10-19T21:24:03;15.30;99.90
2565;DHT22;1292;48.020;7.822;2023-10-19T21:26:30;15.30;99.90
2565;DHT22;1292;48.020;7.822;2023-10-19T21:28:57;15.30;99.90
2565;DHT22;1292;48.020;7.822;2023-10-19T21:31:26;15.30;99.90
2565;DHT22;1292;48.020;7.822;2023-10-19T21:33:54;15.40;99.90
2565;DHT22;1292;48.020;7.822;2023-10-19T21:36:21;15.40;99.90
2565;DHT22;1292;48.020;7.822;2023-10-19T21:38:48;15.40;99.90
